Time;durP1;ratioP1;P1;durP2;ratioP2;P2;SDS_P1;SDS_P2;PMS_P1;PMS_P2;Temp;Humidity;BMP_temperature;BMP_pressure;BME280_temperature;BME280_humidity;BME280_pressure;Samples;Min_cycle;Max_cycle;Signal;HPM_P1;HPM_P2
2021/08/11 00:01:12;;;;;;;5.27;3.90;;;;;;;30.09;44.95;100832.16;128898;1084;64131;-85
2021/08/11 00:03:39;;;;;;;4.77;3.50;;;;;;;30.08;44.93;100842.17;128454;1084;64220;-86
2021/08/11 00:06:19;;;;;;;;;;;;;;;;;;;;;
2021/08/11 00:08:46;;;;;;;5.17;3.60;;;;;;;30.08;44.89;100825.84;128877;1082;64103;-86
2021/08/11 00:11:13;;;;;;;4.80;3.73;;;;;;;30.08;44.79;100825.84;128539;1084;64147;-86
2021/08/11 00:13:40;;;;;;;4.90;3.60;;;;;;;30.08;44.65;100830.45;128530;1083;64221;-86
2021/08/11 00:16:06;;;;;;;5.23;3.87;;;;;;;30.08;45.05;100825.84;128898;1083;64201;-85
2021/08/11 00:18:32;;;;;;;5.47;3.70;;;;;;;30.08;45.03;100833.17;128508;1082;64121;-85
2021/08/11 00:20:58;;;;;;;5.13;4.17;;;;;;;30.07;44.91;100829.61;128897;1084;64144;-85
2021/08/11 00:23:27;;;;;;;5.70;3.70;;;;;;;30.08;44.96;100831.28;128523;1084;64131;-85
2021/08/11 00:25:54;;;;;;;6.27;3.67;;;;;;;30.09;44.85;100837.61;128918;1084;61864;-85
2021/08/11 00:28:21;;;;;;;5.03;3.53;;;;;;;30.08;44.60;100835.89;128499;1084;64182;-86
2021/08/11 00:30:48;;;;;;;4.57;3.80;;;;;;;30.07;44.63;100832.33;128907;1084;64287;-85
2021/08/11 00:33:14;;;;;;;4.40;3.50;;;;;;;30.07;44.94;100832.33;128479;1084;64584;-86
2021/08/11 00:35:40;;;;;;;5.63;4.07;;;;;;;30.08;45.10;100831.28;128770;1083;64176;-85
2021/08/11 00:38:07;;;;;;;4.50;3.70;;;;;;;30.07;45.08;100820.58;128482;1084;64208;-85
2021/08/11 00:40:34;;;;;;;4.85;3.40;;;;;;;30.07;44.92;100820.58;128901;1082;64135;-86
2021/08/11 00:43:07;;;;;;;4.50;3.57;;;;;;;30.07;45.05;100828.73;128760;1084;64092;-85
2021/08/11 00:45:34;;;;;;;5.30;3.80;;;;;;;30.06;44.95;100825.18;128780;1084;64009;-86
2021/08/11 00:48:01;;;;;;;4.87;3.70;;;;;;;30.06;45.16;100830.63;128518;1084;64131;-86
2021/08/11 00:50:28;;;;;;;4.53;3.50;;;;;;;30.06;45.05;100829.75;128460;1084;64246;-87
2021/08/11 00:52:54;;;;;;;4.53;3.63;;;;;;;30.06;44.96;100822.45;128907;1084;64294;-85
2021/08/11 00:55:20;;;;;;;5.17;3.70;;;;;;;30.06;44.82;100824.31;128937;1084;64147;-86
2021/08/11 00:57:50;;;;;;;4.57;3.60;;;;;;;30.06;45.25;100824.31;128499;1083;64265;-86
2021/08/11 01:00:17;;;;;;;4.70;3.57;;;;;;;30.05;45.24;100831.64;128920;1084;64281;-85
2021/08/11 01:02:44;;;;;;;5.10;3.93;;;;;;;30.06;45.17;100829.75;128497;1084;64131;-86
2021/08/11 01:05:10;;;;;;;4.53;3.53;;;;;;;30.05;44.90;100834.36;128508;1084;64138;-86
2021/08/11 01:07:36;;;;;;;4.73;3.47;;;;;;;30.05;44.91;100837.08;128930;1082;64108;-87
2021/08/11 01:10:04;;;;;;;4.07;3.53;;;;;;;30.05;44.85;100833.52;128734;1084;64159;-85
2021/08/11 01:12:30;;;;;;;4.60;3.70;;;;;;;30.04;45.20;100835.38;128931;1084;64119;-86
2021/08/11 01:15:01;;;;;;;4.50;3.67;;;;;;;30.05;45.04;100834.36;128492;1084;64105;-87
2021/08/11 01:17:28;;;;;;;5.73;3.73;;;;;;;30.05;45.16;100825.35;128524;1084;64180;-86
2021/08/11 01:19:58;;;;;;;5.13;3.90;;;;;;;30.05;45.16;100825.35;128528;1082;64156;-86
2021/08/11 01:22:40;;;;;;;5.43;3.60;;;;;;;30.05;45.26;100819.91;128741;1084;64293;-85
2021/08/11 01:25:14;;;;;;;5.10;3.87;;;;;;;30.04;45.37;100821.77;128938;1084;64131;-85
2021/08/11 01:28:00;;;;;;;5.10;3.70;;;;;;;30.04;45.32;100820.92;128954;1083;64211;-86
2021/08/11 01:30:30;;;;;;;4.87;3.63;;;;;;;30.05;44.97;100819.91;128898;1084;64139;-85
2021/08/11 01:32:59;;;;;;;4.27;3.50;;;;;;;30.04;44.86;100823.64;128888;1084;64133;-86
2021/08/11 01:35:40;;;;;;;5.03;3.80;;;;;;;30.04;45.35;100818.20;128936;1084;64284;-85
2021/08/11 01:38:08;;;;;;;4.60;3.60;;;;;;;30.04;45.29;100820.92;128937;1082;64085;-86
2021/08/11 01:40:37;;;;;;;4.85;3.55;;;;;;;30.03;45.16;100816.49;128512;1082;64125;-86
2021/08/11 01:43:03;;;;;;;4.73;3.65;;;;;;;30.03;45.08;100817.36;128877;1084;64275;-85
2021/08/11 01:45:36;;;;;;;5.43;3.50;;;;;;;30.03;45.41;100819.21;128942;1084;64117;-86
2021/08/11 01:48:09;;;;;;;4.40;3.70;;;;;;;30.04;45.01;100826.36;128922;1084;64120;-85
2021/08/11 01:50:45;;;;;;;4.90;3.83;;;;;;;30.04;45.45;100826.36;128881;1084;64138;-86
2021/08/11 01:53:19;;;;;;;5.23;3.87;;;;;;;30.04;45.11;100815.48;128926;1084;64307;-85
2021/08/11 01:55:54;;;;;;;5.57;4.10;;;;;;;30.03;45.41;100820.08;128956;1082;64286;-85
2021/08/11 01:58:22;;;;;;;4.80;3.60;;;;;;;30.03;45.49;100816.49;128924;1084;64087;-85
2021/08/11 02:00:49;;;;;;;6.30;4.00;;;;;;;30.04;45.04;100804.59;128892;1084;64154;-85
2021/08/11 02:03:19;;;;;;;4.67;3.60;;;;;;;30.03;45.42;100806.47;128566;1084;64135;-85
2021/08/11 02:05:45;;;;;;;4.47;3.50;;;;;;;30.03;45.40;100811.92;129044;1084;64208;-85
2021/08/11 02:08:11;;;;;;;5.10;4.07;;;;;;;30.03;45.31;100809.20;128669;1084;64150;-85
2021/08/11 02:10:38;;;;;;;4.67;3.67;;;;;;;30.03;45.10;100814.64;129131;1084;61689;-84
2021/08/11 02:13:05;;;;;;;4.57;3.80;;;;;;;30.04;45.12;100812.76;129211;1083;61716;-85
2021/08/11 02:15:31;;;;;;;4.97;3.60;;;;;;;30.05;45.51;100811.74;129001;1084;64092;-85
2021/08/11 02:17:57;;;;;;;4.73;3.60;;;;;;;30.05;45.28;100809.86;128370;1084;64134;-87
2021/08/11 02:20:23;;;;;;;5.00;3.70;;;;;;;30.05;45.39;100811.74;128351;1084;64131;-86
2021/08/11 02:22:49;;;;;;;4.73;3.57;;;;;;;30.05;45.16;100819.91;128385;1084;64631;-86
2021/08/11 02:25:16;;;;;;;4.10;3.47;;;;;;;30.06;45.01;100810.70;128423;1084;64297;-85
2021/08/11 02:28:37;;;;;;;4.30;3.50;;;;;;;30.05;45.20;100814.47;128384;1084;64125;-86
2021/08/11 02:31:11;;;;;;;4.53;3.77;;;;;;;30.04;45.10;100812.76;128302;1086;64137;-85
2021/08/11 02:33:52;;;;;;;4.80;3.60;;;;;;;30.04;45.44;100815.48;128027;1087;64240;-85
2021/08/11 02:36:27;;;;;;;4.83;3.40;;;;;;;30.04;45.44;100804.59;128027;1087;64131;-86
2021/08/11 02:38:58;;;;;;;5.57;3.80;;;;;;;30.04;45.50;100810.03;128022;1087;64164;-85
2021/08/11 02:41:36;;;;;;;5.87;3.97;;;;;;;30.03;45.45;100801.03;128032;1087;64215;-85
2021/08/11 02:44:04;;;;;;;6.47;3.90;;;;;;;30.03;45.16;100805.60;127932;1086;64139;-86
2021/08/11 02:46:32;;;;;;;4.97;3.97;;;;;;;30.03;45.31;100800.16;127950;1086;63981;-86
2021/08/11 02:49:06;;;;;;;4.73;3.80;;;;;;;30.02;45.17;100802.05;128082;1087;63949;-86
2021/08/11 02:51:33;;;;;;;4.37;3.77;;;;;;;30.02;45.02;100802.05;128380;1086;64251;-86
2021/08/11 02:54:09;;;;;;;5.17;3.97;;;;;;;30.02;45.37;100802.05;128368;1087;64134;-86
2021/08/11 02:56:35;;;;;;;4.43;3.53;;;;;;;30.01;45.11;100804.94;128371;1087;64154;-85
2021/08/11 02:59:01;;;;;;;4.87;3.87;;;;;;;30.02;45.54;100799.32;128312;1087;64134;-86
2021/08/11 03:01:29;;;;;;;7.13;4.10;;;;;;;30.02;45.22;100807.48;128335;1084;64099;-85
2021/08/11 03:03:56;;;;;;;5.10;3.80;;;;;;;30.02;45.07;100806.62;128371;1087;64339;-85
2021/08/11 03:06:24;;;;;;;4.70;3.67;;;;;;;30.02;45.11;100804.77;128335;1086;64124;-86
2021/08/11 03:08:51;;;;;;;4.67;3.60;;;;;;;30.02;45.37;100806.62;128863;1084;64217;-85
2021/08/11 03:11:19;;;;;;;4.77;3.63;;;;;;;30.01;45.42;100811.22;128893;1084;64259;-85
2021/08/11 03:13:45;;;;;;;4.67;3.70;;;;;;;30.01;45.04;100813.11;128490;1084;64552;-85
2021/08/11 03:16:13;;;;;;;5.97;3.80;;;;;;;30.01;45.60;100808.50;128500;1083;64294;-86
2021/08/11 03:18:39;;;;;;;4.57;3.57;;;;;;;30.01;45.11;100811.22;128445;1084;64144;-86
2021/08/11 03:21:06;;;;;;;5.33;3.90;;;;;;;30.01;45.46;100804.94;128527;1084;64188;-85
2021/08/11 03:23:35;;;;;;;4.20;3.47;;;;;;;30.00;45.61;100806.79;128488;1082;64173;-86
2021/08/11 03:26:01;;;;;;;5.63;3.93;;;;;;;30.01;45.18;100810.38;128539;1084;64095;-86
2021/08/11 03:28:27;;;;;;;5.40;3.73;;;;;;;30.00;45.32;100814.95;128469;1083;64314;-85
2021/08/11 03:30:54;;;;;;;4.97;3.63;;;;;;;30.00;45.65;100809.52;128496;1084;64203;-86
2021/08/11 03:33:20;;;;;;;6.63;4.10;;;;;;;30.00;45.63;100809.52;128516;1083;64192;-86
2021/08/11 03:35:47;;;;;;;5.30;3.90;;;;;;;30.00;45.65;100817.67;128519;1083;64361;-84
2021/08/11 03:38:16;;;;;;;4.80;3.87;;;;;;;30.00;45.70;100835.89;128906;1084;64140;-85
2021/08/11 03:40:42;;;;;;;5.07;3.70;;;;;;;30.01;45.58;100823.98;128482;1082;64130;-85
2021/08/11 03:43:11;;;;;;;4.73;3.70;;;;;;;30.00;45.63;100833.17;128525;1083;64092;-86
2021/08/11 03:45:42;;;;;;;6.25;3.60;;;;;;;29.99;45.66;100828.73;128525;1083;64131;-86
2021/08/11 03:48:09;;;;;;;5.20;3.73;;;;;;;29.99;45.74;100832.30;128479;1082;64131;-86
2021/08/11 03:50:35;;;;;;;5.00;3.73;;;;;;;30.00;45.17;100841.33;128497;1084;64127;-86
2021/08/11 03:53:03;;;;;;;5.23;3.60;;;;;;;30.00;45.70;100841.33;128474;1084;64281;-85
2021/08/11 03:55:31;;;;;;;5.30;3.83;;;;;;;29.99;45.07;100845.91;128927;1084;64118;-86
2021/08/11 03:57:58;;;;;;;;;;;;;;;29.99;45.48;100840.46;128562;1084;64133;-85
2021/08/11 04:00:25;;;;;;;4.73;3.80;;;;;;;29.99;45.44;100845.91;128907;1083;64133;-86
2021/08/11 04:02:55;;;;;;;5.60;3.90;;;;;;;29.99;45.33;100843.19;128857;1084;64252;-86
2021/08/11 04:05:21;;;;;;;5.43;4.20;;;;;;;29.99;45.69;100834.18;128931;1083;64173;-85
2021/08/11 04:07:47;;;;;;;5.43;3.77;;;;;;;29.99;45.41;100845.06;128493;1084;64304;-86
2021/08/11 04:10:14;;;;;;;4.53;3.63;;;;;;;30.00;45.49;100852.22;128466;1084;64143;-86
2021/08/11 04:12:41;;;;;;;4.80;3.90;;;;;;;29.99;45.78;100850.51;128512;1084;64131;-86
2021/08/11 04:15:08;;;;;;;4.93;4.00;;;;;;;29.99;45.37;100854.07;128930;1084;64144;-86
2021/08/11 04:17:34;;;;;;;5.13;3.77;;;;;;;30.00;45.66;100857.66;128476;1084;64198;-85
2021/08/11 04:20:00;;;;;;;4.57;3.73;;;;;;;29.99;45.59;100858.67;128481;1084;64157;-85
2021/08/11 04:22:26;;;;;;;5.20;3.80;;;;;;;30.00;45.77;100863.95;128458;1084;64153;-86
2021/08/11 04:24:56;;;;;;;5.97;3.80;;;;;;;30.00;45.63;100863.11;128502;1084;64172;-86
2021/08/11 04:27:29;;;;;;;4.60;3.60;;;;;;;30.01;45.55;100862.09;128496;1084;64000;-85
2021/08/11 04:29:55;;;;;;;4.80;4.00;;;;;;;30.00;45.57;100868.55;128523;1084;64174;-86
2021/08/11 04:32:22;;;;;;;4.93;3.83;;;;;;;30.00;45.64;100868.55;128494;1084;64288;-85
2021/08/11 04:34:48;;;;;;;4.77;3.83;;;;;;;30.00;45.42;100872.11;128487;1083;64133;-85
2021/08/11 04:37:18;;;;;;;4.53;3.53;;;;;;;30.01;45.80;100878.42;128489;1083;64124;-86
2021/08/11 04:39:44;;;;;;;5.27;3.97;;;;;;;30.01;45.51;100867.54;128487;1084;64147;-85
2021/08/11 04:42:12;;;;;;;5.53;4.07;;;;;;;30.02;45.40;100874.66;128511;1084;64124;-85
2021/08/11 04:44:38;;;;;;;4.80;4.00;;;;;;;30.00;45.57;100876.72;128487;1082;64147;-86
2021/08/11 04:47:05;;;;;;;6.17;3.93;;;;;;;30.01;45.60;100884.70;128464;1083;65698;-86
2021/08/11 04:49:31;;;;;;;6.97;4.53;;;;;;;30.01;45.46;100881.15;128477;1082;64147;-86
2021/08/11 04:51:57;;;;;;;5.63;4.40;;;;;;;30.00;45.52;100880.28;128501;1082;64105;-86
2021/08/11 04:54:23;;;;;;;5.43;4.40;;;;;;;30.00;45.43;100885.72;128522;1082;64179;-86
2021/08/11 04:56:50;;;;;;;6.10;4.07;;;;;;;29.99;45.73;100886.73;128496;1082;64105;-86
2021/08/11 04:59:16;;;;;;;7.60;4.27;;;;;;;30.00;45.14;100884.88;128463;1084;64147;-85
2021/08/11 05:01:42;;;;;;;11.13;4.73;;;;;;;29.98;45.29;100886.91;128909;1083;64204;-84
2021/08/11 05:04:08;;;;;;;10.60;4.87;;;;;;;29.98;45.55;100892.34;128512;1084;64372;-85
2021/08/11 05:06:34;;;;;;;16.40;5.70;;;;;;;29.97;45.55;100896.95;128466;1082;64093;-83
2021/08/11 05:09:01;;;;;;;11.33;4.90;;;;;;;29.97;45.07;100894.23;128346;1084;63987;-83
2021/08/11 05:11:27;;;;;;;10.10;4.87;;;;;;;29.97;45.28;100896.95;128394;1083;64278;-85
2021/08/11 05:13:53;;;;;;;8.53;4.63;;;;;;;29.97;45.25;100891.50;128335;1084;64167;-85
2021/08/11 05:16:19;;;;;;;7.40;4.10;;;;;;;29.97;44.82;100891.50;128448;1084;64220;-85
2021/08/11 05:18:48;;;;;;;7.77;4.90;;;;;;;29.97;45.22;100899.67;128914;1084;64985;-86
2021/08/11 05:21:14;;;;;;;7.00;4.30;;;;;;;29.98;45.07;100897.79;128475;1082;64236;-85
2021/08/11 05:23:44;;;;;;;7.23;4.60;;;;;;;29.98;45.04;100900.52;128394;1084;64675;-85
2021/08/11 05:26:10;;;;;;;8.40;4.70;;;;;;;29.98;44.57;100904.11;128507;1084;64358;-85
2021/08/11 05:28:37;;;;;;;6.50;4.60;;;;;;;29.98;44.79;100906.83;128448;1083;64214;-85
2021/08/11 05:31:03;;;;;;;11.10;4.80;;;;;;;29.99;44.64;100911.23;128428;1084;64205;-83
2021/08/11 05:33:29;;;;;;;6.60;4.20;;;;;;;29.99;44.39;100905.78;128371;1084;64166;-86
2021/08/11 05:35:55;;;;;;;6.40;4.67;;;;;;;29.99;44.73;100905.78;128500;1084;64339;-85
2021/08/11 05:38:22;;;;;;;6.13;4.53;;;;;;;30.01;44.44;100908.36;128459;1084;64151;-85
2021/08/11 05:40:48;;;;;;;5.20;4.17;;;;;;;30.00;44.64;100893.88;128418;1084;64150;-85
2021/08/11 05:43:15;;;;;;;6.40;4.47;;;;;;;30.02;44.18;100899.16;128361;1082;64180;-85
2021/08/11 05:45:41;;;;;;;4.93;3.97;;;;;;;30.01;44.34;100892.88;128400;1084;64137;-85
2021/08/11 05:48:07;;;;;;;6.30;4.50;;;;;;;30.01;44.32;100895.59;128336;1084;64195;-85
2021/08/11 05:50:38;;;;;;;6.87;4.53;;;;;;;30.03;44.43;100896.30;128369;1084;64150;-84
2021/08/11 05:53:04;;;;;;;8.03;4.43;;;;;;;30.03;44.37;100899.02;128465;1081;64128;-85
2021/08/11 05:55:30;;;;;;;7.70;4.83;;;;;;;30.03;44.43;100901.73;128422;1084;64303;-85
2021/08/11 05:57:57;;;;;;;6.40;4.03;;;;;;;30.04;44.43;100892.53;128416;1082;64150;-85
2021/08/11 06:00:23;;;;;;;6.40;4.33;;;;;;;30.04;43.98;100894.41;128418;1084;64131;-85
2021/08/11 06:02:49;;;;;;;7.17;4.30;;;;;;;30.05;44.37;100899.69;128828;1084;64137;-85
2021/08/11 06:05:17;;;;;;;8.10;4.45;;;;;;;30.05;44.18;100901.56;128385;1084;64150;-85
2021/08/11 06:07:43;;;;;;;7.03;4.43;;;;;;;30.05;44.17;100905.13;128417;1084;63977;-83
2021/08/11 06:10:10;;;;;;;5.70;4.03;;;;;;;30.06;43.51;100909.56;128431;1083;64079;-84
2021/08/11 06:12:37;;;;;;;7.40;4.47;;;;;;;30.07;44.02;100911.27;128493;1083;64180;-86
2021/08/11 06:15:04;;;;;;;6.20;3.83;;;;;;;30.07;43.67;100896.79;128565;1083;64224;-85
2021/08/11 06:17:31;;;;;;;10.43;4.53;;;;;;;30.08;43.55;100903.94;128968;1082;62129;-82
2021/08/11 06:19:57;;;;;;;7.40;4.30;;;;;;;30.09;43.81;100911.94;128652;1083;64175;-85
2021/08/11 06:22:23;;;;;;;5.53;4.27;;;;;;;30.12;43.39;100912.64;128642;1084;64093;-85
2021/08/11 06:24:50;;;;;;;6.70;3.97;;;;;;;30.12;43.85;100905.31;128471;1084;64133;-85
2021/08/11 06:27:16;;;;;;;8.03;4.53;;;;;;;30.13;43.52;100904.30;128452;1083;64240;-84
2021/08/11 06:29:43;;;;;;;7.17;4.80;;;;;;;30.14;43.29;100902.41;128476;1082;64126;-85
2021/08/11 06:32:10;;;;;;;7.80;4.90;;;;;;;30.13;43.63;100907.02;128453;1083;64224;-85
2021/08/11 06:34:36;;;;;;;8.07;4.70;;;;;;;30.15;43.32;100894.08;128421;1084;64850;-85
2021/08/11 06:37:04;;;;;;;5.97;4.30;;;;;;;30.16;43.52;100897.67;128437;1083;64111;-85
2021/08/11 06:39:30;;;;;;;7.25;4.28;;;;;;;30.15;43.23;100899.52;128872;1083;64281;-84
2021/08/11 06:41:58;;;;;;;6.23;4.20;;;;;;;30.15;43.34;100899.52;128426;1084;64138;-85
2021/08/11 06:44:24;;;;;;;8.87;4.43;;;;;;;30.17;43.66;100899.38;128257;1084;64179;-85
2021/08/11 06:46:51;;;;;;;6.03;4.40;;;;;;;30.18;42.94;100896.48;128275;1084;64150;-85
2021/08/11 06:49:17;;;;;;;5.83;4.07;;;;;;;30.17;42.91;100897.50;128453;1084;64201;-85
2021/08/11 06:52:07;;;;;;;8.17;4.20;;;;;;;30.19;43.22;100902.77;128439;1084;64323;-85
2021/08/11 06:54:33;;;;;;;12.17;4.73;;;;;;;30.19;42.91;100905.49;128187;1086;64143;-83
2021/08/11 06:57:01;;;;;;;6.90;3.90;;;;;;;30.19;42.92;100905.49;127917;1086;64134;-84
2021/08/11 06:59:32;;;;;;;6.97;4.07;;;;;;;30.19;42.89;100905.49;128180;1087;64101;-86
2021/08/11 07:01:58;;;;;;;7.63;4.50;;;;;;;30.19;42.52;100906.33;128361;1085;64269;-85
2021/08/11 07:04:24;;;;;;;6.70;4.40;;;;;;;30.19;42.69;100909.05;128346;1086;64235;-85
2021/08/11 07:06:51;;;;;;;8.43;4.40;;;;;;;30.19;42.42;100898.16;127964;1085;64610;-85
2021/08/11 07:09:21;;;;;;;6.30;4.30;;;;;;;30.20;42.85;100902.59;128330;1087;64128;-85
2021/08/11 07:11:48;;;;;;;7.97;4.63;;;;;;;30.21;42.45;100903.47;128281;1087;64128;-85
2021/08/11 07:14:14;;;;;;;6.17;4.43;;;;;;;30.20;42.74;100907.20;127884;1087;64208;-85
2021/08/11 07:16:40;;;;;;;6.33;4.23;;;;;;;30.20;42.72;100905.31;128241;1087;64282;-85
2021/08/11 07:19:07;;;;;;;6.40;4.30;;;;;;;30.20;42.11;100913.48;128178;1087;64128;-84
2021/08/11 07:21:33;;;;;;;6.73;4.30;;;;;;;30.21;42.37;100909.75;128387;1085;64299;-86
2021/08/11 07:24:00;;;;;;;7.03;4.20;;;;;;;30.21;42.07;100903.47;128375;1086;64135;-85
2021/08/11 07:26:26;;;;;;;5.87;4.10;;;;;;;30.21;42.07;100906.19;127986;1087;64137;-85
2021/08/11 07:28:53;;;;;;;7.10;4.40;;;;;;;30.22;41.99;100905.14;128318;1087;64266;-85
2021/08/11 07:31:19;;;;;;;8.63;4.53;;;;;;;30.21;42.41;100909.75;128386;1084;64120;-84
2021/08/11 07:33:46;;;;;;;5.95;3.80;;;;;;;30.21;42.09;100904.30;128476;1084;62372;-85
2021/08/11 07:36:13;;;;;;;6.25;4.28;;;;;;;30.21;42.04;100907.03;128715;1084;64157;-85
2021/08/11 07:38:39;;;;;;;8.07;4.37;;;;;;;30.21;42.24;100907.03;128320;1084;64163;-83
2021/08/11 07:41:05;;;;;;;6.87;4.43;;;;;;;30.22;41.82;100902.42;128330;1084;64099;-87
2021/08/11 07:43:33;;;;;;;6.73;4.17;;;;;;;30.21;42.27;100900.75;128467;1084;64336;-85
2021/08/11 07:46:00;;;;;;;5.73;4.20;;;;;;;30.22;41.83;100906.02;128327;1083;64115;-84
2021/08/11 07:48:27;;;;;;;7.37;4.23;;;;;;;30.23;41.77;100901.41;128774;1084;64156;-85
2021/08/11 07:50:53;;;;;;;5.93;4.10;;;;;;;30.23;41.63;100895.97;128263;1083;64115;-85
2021/08/11 07:53:20;;;;;;;6.37;4.10;;;;;;;30.23;41.90;100902.28;128476;1084;64123;-85
2021/08/11 07:55:46;;;;;;;6.07;3.97;;;;;;;30.22;42.08;100895.13;128435;1084;64182;-86
2021/08/11 07:58:12;;;;;;;6.80;3.97;;;;;;;30.23;41.78;100902.28;128893;1084;64166;-86
2021/08/11 08:00:39;;;;;;;6.03;3.70;;;;;;;30.22;41.47;100897.84;128441;1084;64230;-84
2021/08/11 08:03:06;;;;;;;6.40;4.17;;;;;;;30.23;41.43;100895.97;128142;1082;64172;-83
2021/08/11 08:05:32;;;;;;;6.68;4.00;;;;;;;30.22;41.92;100895.13;128274;1084;64182;-84
2021/08/11 08:08:00;;;;;;;6.13;4.07;;;;;;;30.23;41.76;100894.11;128257;1082;64327;-83
2021/08/11 08:10:26;;;;;;;5.63;4.03;;;;;;;30.24;41.75;100886.78;128291;1084;64089;-83
2021/08/11 08:12:52;;;;;;;5.20;4.07;;;;;;;30.25;41.50;100886.61;128342;1083;64192;-83
2021/08/11 08:15:19;;;;;;;6.07;3.80;;;;;;;30.25;41.71;100885.77;128755;1083;64134;-85
2021/08/11 08:17:46;;;;;;;5.00;3.90;;;;;;;30.25;41.71;100877.61;128438;1084;64361;-85
2021/08/11 08:20:13;;;;;;;5.73;4.30;;;;;;;30.25;41.34;100872.16;128436;1084;64133;-85
2021/08/11 08:22:39;;;;;;;5.87;4.00;;;;;;;30.25;41.78;100878.44;128441;1084;64287;-85
2021/08/11 08:25:06;;;;;;;5.43;4.00;;;;;;;30.25;41.76;100873.00;128436;1084;64154;-85
2021/08/11 08:27:33;;;;;;;5.93;3.70;;;;;;;30.25;41.57;100873.00;128454;1084;64146;-86
2021/08/11 08:29:59;;;;;;;6.63;4.20;;;;;;;30.25;41.27;100858.55;128500;1082;64252;-86
2021/08/11 08:32:27;;;;;;;6.63;4.03;;;;;;;30.25;41.63;100862.11;128490;1084;64183;-85
2021/08/11 08:34:54;;;;;;;5.90;4.00;;;;;;;30.25;41.58;100858.55;128508;1084;64101;-85
2021/08/11 08:37:34;;;;;;;6.50;3.80;;;;;;;30.24;41.27;100865.84;128462;1084;64092;-85
2021/08/11 08:40:08;;;;;;;6.00;3.73;;;;;;;30.25;41.55;100861.27;128501;1084;64136;-86
2021/08/11 08:42:36;;;;;;;5.23;3.90;;;;;;;30.24;41.52;100857.67;128888;1084;64247;-85
2021/08/11 08:45:03;;;;;;;5.88;4.20;;;;;;;30.23;41.28;100861.44;128425;1084;64137;-85
2021/08/11 08:47:31;;;;;;;5.47;3.80;;;;;;;30.25;41.18;100855.83;128397;1084;64107;-84
2021/08/11 08:49:59;;;;;;;6.60;3.63;;;;;;;30.25;41.04;100844.93;128795;1083;64224;-85
2021/08/11 08:52:25;;;;;;;6.83;3.70;;;;;;;30.24;41.07;100846.78;128411;1082;64128;-85
2021/08/11 08:54:51;;;;;;;5.67;3.80;;;;;;;30.24;41.33;100846.78;128823;1084;64700;-84
2021/08/11 08:57:18;;;;;;;7.70;4.13;;;;;;;30.26;40.93;100846.61;128447;1084;64344;-85
2021/08/11 08:59:45;;;;;;;5.95;3.80;;;;;;;30.25;40.81;100845.77;128421;1081;64275;-84
2021/08/11 09:02:14;;;;;;;5.77;3.90;;;;;;;30.25;41.45;100839.48;128331;1083;64140;-85
2021/08/11 09:04:41;;;;;;;5.03;3.63;;;;;;;30.26;40.71;100841.16;128450;1082;64191;-86
2021/08/11 09:07:10;;;;;;;4.75;3.60;;;;;;;30.26;40.87;100832.99;128422;1084;64137;-84
2021/08/11 09:09:37;;;;;;;6.17;4.00;;;;;;;30.25;40.89;100829.44;128466;1082;64147;-84
2021/08/11 09:12:18;;;;;;;5.33;3.70;;;;;;;30.26;41.06;100831.14;128887;1084;64117;-85
2021/08/11 09:14:49;;;;;;;6.90;3.97;;;;;;;30.26;40.87;100824.83;128420;1083;64134;-85
2021/08/11 09:17:35;;;;;;;5.23;4.00;;;;;;;30.26;41.03;100824.83;128486;1084;64155;-85
2021/08/11 09:20:03;;;;;;;4.90;3.50;;;;;;;30.26;40.58;100827.55;128866;1082;64224;-85
2021/08/11 09:22:29;;;;;;;5.70;3.77;;;;;;;30.26;40.43;100822.10;128471;1084;64291;-85
2021/08/11 09:25:06;;;;;;;6.10;4.10;;;;;;;30.25;40.91;100823.98;128470;1084;64134;-84
2021/08/11 09:27:34;;;;;;;6.37;3.93;;;;;;;30.25;40.79;100820.42;128782;1083;64150;-84
2021/08/11 09:30:31;;;;;;;5.73;3.67;;;;;;;30.26;40.49;100819.38;128408;1084;64163;-85
2021/08/11 09:33:04;;;;;;;5.50;3.70;;;;;;;30.25;40.66;100821.27;128452;1082;64125;-86
2021/08/11 09:35:33;;;;;;;4.67;3.93;;;;;;;30.25;40.86;100818.55;128890;1084;64294;-85
2021/08/11 09:38:06;;;;;;;5.93;3.83;;;;;;;30.25;40.77;100807.65;128836;1084;64166;-84
2021/08/11 09:40:36;;;;;;;6.30;3.93;;;;;;;30.26;40.62;100812.08;128432;1084;64233;-85
2021/08/11 09:43:09;;;;;;;6.60;4.00;;;;;;;30.27;40.25;100810.20;128466;1084;64231;-85
2021/08/11 09:45:47;;;;;;;6.20;3.87;;;;;;;30.26;40.64;100801.19;128897;1082;64141;-84
2021/08/11 09:48:15;;;;;;;5.50;3.80;;;;;;;30.26;40.24;100797.59;128907;1084;64137;-84
2021/08/11 09:50:48;;;;;;;5.83;3.80;;;;;;;30.26;40.64;100792.16;128417;1084;64178;-84
2021/08/11 09:53:23;;;;;;;5.87;3.87;;;;;;;30.26;40.29;100792.16;128469;1084;63946;-85
2021/08/11 09:56:02;;;;;;;5.43;3.83;;;;;;;30.26;40.34;100798.47;128470;1084;64207;-85
2021/08/11 09:58:30;;;;;;;7.83;3.80;;;;;;;30.26;40.59;100794.88;128880;1084;64138;-85
2021/08/11 10:00:56;;;;;;;7.43;3.70;;;;;;;30.27;40.49;100793.86;128464;1084;64109;-84
2021/08/11 10:03:23;;;;;;;5.77;3.70;;;;;;;30.26;40.33;100794.88;128495;1084;64131;-85
2021/08/11 10:05:56;;;;;;;5.40;3.77;;;;;;;30.26;40.63;100789.43;128466;1084;64099;-86
2021/08/11 10:08:34;;;;;;;6.10;3.63;;;;;;;30.25;40.48;100783.14;128500;1084;64365;-85
2021/08/11 10:11:01;;;;;;;9.37;4.00;;;;;;;30.26;40.55;100778.54;128875;1084;64099;-85
2021/08/11 10:13:28;;;;;;;5.10;3.77;;;;;;;30.25;40.53;100780.42;128530;1084;64228;-85
2021/08/11 10:15:56;;;;;;;6.23;3.97;;;;;;;30.26;40.04;100778.54;128873;1083;64235;-85
2021/08/11 10:18:27;;;;;;;6.13;3.90;;;;;;;30.25;40.52;100771.42;128513;1084;64118;-82
2021/08/11 10:20:58;;;;;;;8.10;4.00;;;;;;;30.25;40.05;100780.42;128512;1084;64303;-84
2021/08/11 10:23:25;;;;;;;5.23;3.73;;;;;;;30.25;40.28;100777.70;128520;1084;64176;-84
2021/08/11 10:25:52;;;;;;;5.80;3.80;;;;;;;30.25;40.00;100766.81;128946;1084;64108;-83
2021/08/11 10:28:24;;;;;;;7.18;4.03;;;;;;;30.26;40.28;100759.48;128557;1084;64097;-83
2021/08/11 10:30:51;;;;;;;6.07;3.67;;;;;;;30.26;40.34;100764.92;128443;1083;62284;-83
2021/08/11 10:33:19;;;;;;;5.30;3.73;;;;;;;30.26;40.42;100768.52;128418;1084;64230;-83
2021/08/11 10:35:46;;;;;;;5.70;4.00;;;;;;;30.26;40.29;100760.34;128306;1084;64055;-83
2021/08/11 10:38:14;;;;;;;6.07;3.63;;;;;;;30.28;40.42;100764.78;128420;1084;64155;-85
2021/08/11 10:40:50;;;;;;;5.27;3.80;;;;;;;30.28;40.19;100764.78;128442;1084;64128;-85
2021/08/11 10:43:16;;;;;;;5.97;3.50;;;;;;;30.28;40.16;100756.61;128516;1082;64098;-85
2021/08/11 10:45:44;;;;;;;5.30;3.80;;;;;;;30.28;40.39;100757.45;128880;1084;64144;-84
2021/08/11 10:48:15;;;;;;;6.47;4.10;;;;;;;30.27;39.89;100750.30;128465;1084;64173;-84
2021/08/11 10:50:45;;;;;;;4.70;3.90;;;;;;;30.26;40.17;100756.75;128831;1084;65139;-85
2021/08/11 10:53:11;;;;;;;5.53;3.60;;;;;;;30.27;40.30;100761.19;128429;1084;64170;-85
2021/08/11 10:55:43;;;;;;;5.30;3.60;;;;;;;30.25;39.84;100750.47;128461;1082;64154;-84
2021/08/11 10:58:09;;;;;;;4.90;3.80;;;;;;;30.26;40.28;100752.18;128434;1082;64166;-85
2021/08/11 11:00:39;;;;;;;5.23;3.80;;;;;;;30.25;40.18;100742.30;128674;1082;64140;-84
2021/08/11 11:03:05;;;;;;;6.80;3.80;;;;;;;30.25;40.03;100742.30;128458;1084;64664;-85
2021/08/11 11:05:33;;;;;;;5.80;3.67;;;;;;;30.25;39.83;100739.58;128367;1082;64234;-84
2021/08/11 11:08:15;;;;;;;5.10;3.55;;;;;;;30.26;39.70;100737.70;128876;1082;64220;-85
2021/08/11 11:10:45;;;;;;;7.43;3.60;;;;;;;30.25;40.18;100742.30;128685;1084;64253;-85
2021/08/11 11:13:31;;;;;;;5.43;3.53;;;;;;;30.26;40.13;100740.42;128500;1084;64098;-86
2021/08/11 11:16:01;;;;;;;6.20;3.87;;;;;;;30.25;40.07;100736.86;128883;1082;64102;-86
2021/08/11 11:18:28;;;;;;;5.27;4.00;;;;;;;30.25;39.99;100731.41;128513;1084;64153;-85
2021/08/11 11:20:58;;;;;;;5.97;3.63;;;;;;;30.25;40.23;100733.30;128475;1084;64237;-86
2021/08/11 11:23:45;;;;;;;7.13;4.20;;;;;;;30.26;40.02;100733.13;128930;1084;64320;-86
2021/08/11 11:26:35;;;;;;;6.13;3.57;;;;;;;30.23;39.67;100728.03;128408;1084;64160;-86